Terminal Aerodrome Forecast
Issued by NWS

Current Version | Previous Version | Text Only | Print | Product List | Glossary On
Versions: 1 2 3 4 5 6 7 8 9 10 11 12 13 14 15 16 17 18 19
000
FTUS46 KMTR 282340
TAFSTS
TAF
KSTS 282340Z 2900/2924 18011KT P6SM SKC
     FM290400 15006KT P6SM FEW250
     FM290600 16004KT P6SM SCT007
     FM290800 VRB02KT 6SM BR OVC004
     FM291200 00000KT 1/2SM FG OVC002
     FM291600 VRB03KT P6SM FEW004
     FM292000 18007KT P6SM SKC=

USA.gov is the U.S. government's official web portal to all federal, state and local government web resources and services.